Time;durP1;ratioP1;P1;durP2;ratioP2;P2;SDS_P1;SDS_P2;PMS_P1;PMS_P2;Temp;Humidity;BMP_temperature;BMP_pressure;BME280_temperature;BME280_humidity;BME280_pressure;Samples;Min_cycle;Max_cycle;Signal;HPM_P1;HPM_P2
2022/01/24 00:02:21;;;;;;;20.95;12.75;;;0.40;99.90;;;;;;6191387;23;20296;-89
2022/01/24 00:05:09;;;;;;;20.73;12.23;;;0.30;99.90;;;;;;6188450;23;20382;-89
2022/01/24 00:07:57;;;;;;;33.55;14.65;;;0.20;99.90;;;;;;6186615;23;20021;-89
2022/01/24 00:10:54;;;;;;;23.10;13.95;;;0.00;99.90;;;;;;6183090;23;20028;-90
2022/01/24 00:27:09;;;;;;;;;;;-0.40;99.90;;;;;;6187501;23;20021;-89
2022/01/24 00:29:56;;;;;;;24.45;14.48;;;-0.60;99.90;;;;;;6186496;23;19920;-90
2022/01/24 00:33:05;;;;;;;29.55;16.13;;;-0.70;99.90;;;;;;6186252;23;20095;-87
2022/01/24 00:36:05;;;;;;;27.33;15.60;;;-0.80;99.90;;;;;;6185396;23;20029;-89
2022/01/24 00:39:07;;;;;;;30.10;17.20;;;-0.80;99.90;;;;;;6182145;23;20436;-88
2022/01/24 00:57:21;;;;;;;31.13;16.30;;;-1.10;99.90;;;;;;6185482;23;20168;-90
2022/01/24 01:00:20;;;;;;;33.35;16.52;;;-1.20;99.90;;;;;;6184429;23;20040;-90
2022/01/24 01:03:33;;;;;;;30.67;17.17;;;-1.20;99.90;;;;;;6184549;23;20029;-90
2022/01/24 01:06:37;;;;;;;30.30;16.90;;;-1.40;99.90;;;;;;6158493;23;20397;-89
2022/01/24 01:18:08;;;;;;;31.25;16.73;;;-1.60;99.90;;;;;;6184151;23;20309;-89
2022/01/24 01:19:36;;;;;;;32.55;17.25;;;-1.70;99.90;;;;;;6185532;23;20025;-89
2022/01/24 01:22:23;;;;;;;37.08;18.48;;;-1.70;99.90;;;;;;6182015;23;20025;-89
2022/01/24 01:25:11;;;;;;;39.13;18.30;;;-1.70;99.90;;;;;;6182504;23;20021;-89
2022/01/24 01:27:58;;;;;;;39.90;19.48;;;-1.80;99.90;;;;;;6182873;23;20337;-88
2022/01/24 01:30:53;;;;;;;37.13;18.80;;;-1.80;99.90;;;;;;6182144;23;20137;-88
2022/01/24 01:33:56;;;;;;;43.22;21.27;;;-1.80;99.90;;;;;;6182556;23;20021;-89
2022/01/24 01:37:11;;;;;;;41.22;19.60;;;-1.80;99.90;;;;;;6184960;23;20025;-88
2022/01/24 01:40:30;;;;;;;43.40;20.08;;;-1.70;99.90;;;;;;6183793;23;20133;-89
2022/01/24 01:56:26;;;;;;;50.05;22.13;;;-1.70;99.90;;;;;;6184508;23;20032;-89
2022/01/24 01:59:13;;;;;;;43.53;21.63;;;-1.80;99.90;;;;;;6184238;23;20032;-89
2022/01/24 02:02:01;;;;;;;49.10;21.95;;;-1.90;99.90;;;;;;6185211;23;20017;-88
2022/01/24 02:04:48;;;;;;;49.78;23.13;;;-1.90;99.90;;;;;;6184685;23;20032;-89
2022/01/24 02:07:49;;;;;;;49.38;22.67;;;-2.00;99.90;;;;;;6165365;23;20032;-89
2022/01/24 02:10:38;;;;;;;47.78;22.45;;;-2.00;99.90;;;;;;6186145;23;20103;-89
2022/01/24 02:13:28;;;;;;;46.22;22.52;;;-2.00;99.90;;;;;;6186861;23;20336;-89
2022/01/24 02:16:38;;;;;;;46.75;21.98;;;-2.00;99.90;;;;;;6184223;23;20097;-90
2022/01/24 02:25:26;;;;;;;50.80;23.58;;;-2.10;99.90;;;;;;6185512;23;20087;-89
2022/01/24 02:28:16;;;;;;;48.90;21.88;;;-2.10;99.90;;;;;;6184500;23;20029;-89
2022/01/24 02:34:27;;;;;;;47.10;22.27;;;-2.20;99.90;;;;;;6186229;23;20024;-87
2022/01/24 02:37:18;;;;;;;46.70;22.40;;;-2.20;99.90;;;;;;6185368;23;20048;-89
2022/01/24 02:40:13;;;;;;;48.05;22.65;;;-2.30;99.90;;;;;;6184530;23;20029;-87
2022/01/24 02:49:15;;;;;;;45.60;22.13;;;-2.20;99.90;;;;;;6183227;23;20033;-88
2022/01/24 02:55:08;;;;;;;53.95;22.83;;;-2.20;99.90;;;;;;6183785;23;20049;-88
2022/01/24 02:57:56;;;;;;;58.22;23.63;;;-2.30;99.90;;;;;;6184310;23;20032;-87
2022/01/24 03:00:46;;;;;;;60.50;23.35;;;-2.30;99.90;;;;;;6181807;23;20028;-88
2022/01/24 03:03:36;;;;;;;57.20;25.00;;;-2.30;99.90;;;;;;6185407;23;20032;-89
2022/01/24 03:06:24;;;;;;;53.22;23.45;;;-2.30;99.90;;;;;;6183414;23;20082;-90
2022/01/24 03:09:22;;;;;;;53.15;22.70;;;-2.40;99.90;;;;;;6185173;23;20029;-91
2022/01/24 03:12:13;;;;;;;58.10;24.50;;;-2.30;99.90;;;;;;6184709;23;20025;-90
2022/01/24 03:15:04;;;;;;;54.97;24.63;;;-2.30;99.90;;;;;;6185184;23;20025;-91
2022/01/24 03:17:51;;;;;;;57.13;24.40;;;-2.30;99.90;;;;;;6185115;23;20083;-89
2022/01/24 03:20:41;;;;;;;64.00;26.50;;;-2.30;99.90;;;;;;6181493;23;20029;-88
2022/01/24 03:23:29;;;;;;;54.20;24.63;;;-2.30;99.90;;;;;;6181987;23;20036;-89
2022/01/24 03:26:16;;;;;;;59.65;26.60;;;-2.30;99.90;;;;;;6184515;23;20044;-87
2022/01/24 03:29:04;;;;;;;60.13;25.60;;;-2.30;99.90;;;;;;6183257;23;20025;-88
2022/01/24 03:31:52;;;;;;;55.78;23.88;;;-2.30;99.90;;;;;;6183487;23;20021;-91
2022/01/24 03:34:40;;;;;;;56.78;25.05;;;-2.30;99.90;;;;;;6185022;23;20115;-91
2022/01/24 03:37:27;;;;;;;57.38;24.77;;;-2.30;99.90;;;;;;6183498;23;20029;-90
2022/01/24 03:40:15;;;;;;;57.72;24.48;;;-2.30;99.90;;;;;;6183122;23;20055;-90
2022/01/24 03:43:04;;;;;;;61.50;25.75;;;-2.30;99.90;;;;;;6183858;23;20033;-88
2022/01/24 03:49:09;;;;;;;59.08;25.05;;;-2.40;99.90;;;;;;6185493;23;20108;-91
2022/01/24 03:51:56;;;;;;;58.95;25.90;;;-2.50;99.90;;;;;;6181408;23;20095;-90
2022/01/24 03:54:44;;;;;;;66.43;27.13;;;-2.40;99.90;;;;;;6184751;23;20069;-89
2022/01/24 03:57:32;;;;;;;60.17;27.13;;;-2.40;99.90;;;;;;6184474;23;20021;-88
2022/01/24 04:00:19;;;;;;;59.88;25.58;;;-2.40;99.90;;;;;;6181692;23;20025;-88
2022/01/24 04:03:07;;;;;;;74.45;29.30;;;-2.50;99.90;;;;;;6184319;23;20087;-88
2022/01/24 04:05:54;;;;;;;76.65;28.73;;;-2.50;99.90;;;;;;6182445;23;20079;-88
2022/01/24 04:08:42;;;;;;;77.43;30.67;;;-2.50;99.90;;;;;;6181492;23;20092;-89
2022/01/24 04:11:35;;;;;;;71.68;29.17;;;-2.50;99.90;;;;;;6183008;23;20048;-89
2022/01/24 04:23:18;;;;;;;71.53;30.20;;;-2.50;99.90;;;;;;6185266;23;20313;-88
2022/01/24 04:26:08;;;;;;;67.63;29.25;;;-2.60;99.90;;;;;;6181702;23;20020;-90
2022/01/24 04:28:59;;;;;;;74.18;28.08;;;-2.60;99.90;;;;;;6183557;23;20021;-89
2022/01/24 04:31:46;;;;;;;72.55;28.25;;;-2.60;99.90;;;;;;6182708;23;20025;-88
2022/01/24 04:34:34;;;;;;;69.05;27.88;;;-2.60;99.90;;;;;;6184684;23;20133;-89
2022/01/24 04:37:21;;;;;;;71.63;28.42;;;-2.70;99.90;;;;;;6183328;23;20025;-90
2022/01/24 04:40:09;;;;;;;78.28;28.50;;;-2.70;99.90;;;;;;6186355;23;20028;-88
2022/01/24 04:43:05;;;;;;;76.43;29.17;;;-2.70;99.90;;;;;;6182132;23;20025;-88
2022/01/24 04:55:08;;;;;;;83.68;33.00;;;-2.70;99.90;;;;;;6184739;23;20115;-87
2022/01/24 04:57:57;;;;;;;85.60;35.78;;;-2.80;99.90;;;;;;6180538;23;20036;-87
2022/01/24 05:00:45;;;;;;;78.60;31.13;;;-2.70;99.90;;;;;;6183966;23;20397;-90
2022/01/24 05:03:34;;;;;;;75.00;29.73;;;-2.80;99.90;;;;;;6181374;23;20025;-90
2022/01/24 05:06:22;;;;;;;68.30;27.80;;;-2.80;99.90;;;;;;6183272;23;20040;-91
2022/01/24 05:09:09;;;;;;;66.63;29.08;;;-2.80;99.90;;;;;;6182887;23;20028;-90
2022/01/24 05:12:10;;;;;;;79.47;28.70;;;-2.80;99.90;;;;;;6182616;23;20021;-88
2022/01/24 05:21:33;;;;;;;69.20;29.20;;;-2.90;99.90;;;;;;6184561;23;20025;-88
2022/01/24 05:24:22;;;;;;;63.00;29.27;;;-3.00;99.90;;;;;;6184921;23;20029;-88
2022/01/24 05:27:13;;;;;;;74.53;29.13;;;-3.00;99.90;;;;;;6184000;23;20100;-90
2022/01/24 05:30:01;;;;;;;77.18;30.65;;;-3.00;99.90;;;;;;6182952;23;20098;-89
2022/01/24 05:32:48;;;;;;;80.22;32.00;;;-3.00;99.90;;;;;;6188636;23;20025;-88
2022/01/24 05:35:54;;;;;;;71.45;36.28;;;-3.00;99.90;;;;;;6184133;23;20079;-85
2022/01/24 05:47:08;;;;;;;66.13;30.27;;;-2.90;99.90;;;;;;6184138;23;20045;-86
2022/01/24 06:03:22;;;;;;;75.10;31.73;;;-3.00;99.90;;;;;;6186272;23;20064;-89
2022/01/24 06:06:31;;;;;;;73.45;31.40;;;-3.00;99.90;;;;;;6192737;23;20029;-89
2022/01/24 06:09:53;;;;;;;81.18;32.33;;;-3.00;99.90;;;;;;6207669;23;20079;-88
2022/01/24 06:16:45;;;;;;;62.83;28.08;;;-2.90;99.90;;;;;;6189362;23;20105;-87
2022/01/24 06:19:34;;;;;;;77.60;32.92;;;-2.80;99.90;;;;;;6186696;23;20037;-85
2022/01/24 06:22:24;;;;;;;73.07;32.70;;;-2.80;99.90;;;;;;6184255;23;20032;-89
2022/01/24 06:25:13;;;;;;;71.30;31.63;;;-2.80;99.90;;;;;;6183279;23;20025;-88
2022/01/24 06:28:02;;;;;;;76.68;33.78;;;-2.90;99.90;;;;;;6186738;23;20032;-87
2022/01/24 06:30:53;;;;;;;65.57;29.67;;;-2.90;99.90;;;;;;6186642;23;20022;-90
2022/01/24 06:33:52;;;;;;;78.45;32.70;;;-3.00;99.90;;;;;;6185160;23;20021;-88
2022/01/24 06:36:39;;;;;;;79.82;33.45;;;-2.90;99.90;;;;;;6184027;23;20033;-88
2022/01/24 06:40:17;;;;;;;82.68;34.28;;;-2.90;99.90;;;;;;6178666;23;20097;-88
2022/01/24 06:43:06;;;;;;;67.78;30.55;;;-2.90;99.90;;;;;;6183438;23;20021;-88
2022/01/24 06:46:14;;;;;;;78.05;32.53;;;-2.90;99.90;;;;;;6185153;23;20029;-88
2022/01/24 06:49:05;;;;;;;69.55;30.30;;;-2.90;99.90;;;;;;6184612;23;20051;-88
2022/01/24 06:52:01;;;;;;;76.80;31.83;;;-2.90;99.90;;;;;;6183720;23;20037;-89
2022/01/24 06:54:49;;;;;;;77.82;34.33;;;-2.90;99.90;;;;;;6181185;23;20109;-87
2022/01/24 06:57:36;;;;;;;73.93;33.22;;;-2.90;99.90;;;;;;6181629;23;20033;-87
2022/01/24 07:00:30;;;;;;;83.40;34.42;;;-2.90;99.90;;;;;;6184071;23;20044;-88
2022/01/24 07:03:30;;;;;;;82.68;33.80;;;-2.80;99.90;;;;;;6187411;23;20695;-87
2022/01/24 07:06:24;;;;;;;83.20;33.10;;;-2.80;99.90;;;;;;6183468;23;20035;-87
2022/01/24 07:09:13;;;;;;;87.40;34.80;;;-2.80;99.90;;;;;;6186087;23;20409;-88
2022/01/24 07:12:47;;;;;;;76.30;34.03;;;-2.80;99.90;;;;;;6184902;23;20025;-88
2022/01/24 07:15:45;;;;;;;71.25;32.35;;;-2.70;99.90;;;;;;6184272;23;20084;-88
2022/01/24 07:19:01;;;;;;;75.97;33.45;;;-2.70;99.90;;;;;;6187884;23;20052;-88
2022/01/24 07:21:58;;;;;;;72.55;31.17;;;-2.70;99.90;;;;;;6186907;23;20028;-89
2022/01/24 07:25:03;;;;;;;78.15;33.35;;;-2.70;99.90;;;;;;6182022;23;20036;-89
2022/01/24 07:27:57;;;;;;;76.78;34.65;;;-2.60;99.90;;;;;;6181921;23;20029;-86
2022/01/24 07:30:48;;;;;;;59.40;26.35;;;-2.60;99.90;;;;;;6183922;23;20381;-88
2022/01/24 07:33:36;;;;;;;82.93;35.92;;;-2.50;99.90;;;;;;6191051;23;20025;-89
2022/01/24 07:36:28;;;;;;;78.95;36.08;;;-2.50;99.90;;;;;;6186996;23;20029;-88
2022/01/24 07:39:31;;;;;;;74.82;35.30;;;-2.50;99.90;;;;;;6192162;23;20025;-89
2022/01/24 07:42:52;;;;;;;72.43;33.20;;;-2.50;99.90;;;;;;6190841;23;20080;-90
2022/01/24 07:45:35;;;;;;;70.97;33.22;;;-2.50;99.90;;;;;;6186881;23;20021;-90
2022/01/24 07:48:35;;;;;;;74.95;35.03;;;-2.40;99.90;;;;;;6192541;23;20024;-90
2022/01/24 07:51:46;;;;;;;78.10;36.53;;;-2.40;99.90;;;;;;6190273;23;20459;-91
2022/01/24 07:54:38;;;;;;;77.15;34.40;;;-2.40;99.90;;;;;;6193589;23;20035;-89
2022/01/24 07:57:33;;;;;;;77.05;35.85;;;-2.30;99.90;;;;;;6197620;23;20048;-87
2022/01/24 08:00:21;;;;;;;84.25;37.13;;;-2.20;99.90;;;;;;6198449;23;20381;-87
2022/01/24 08:03:09;;;;;;;76.25;35.88;;;-2.10;99.90;;;;;;6187494;23;20044;-87
2022/01/24 08:05:59;;;;;;;83.32;37.47;;;-2.00;99.90;;;;;;6186176;23;20413;-89
2022/01/24 08:08:48;;;;;;;79.85;37.35;;;-1.90;99.90;;;;;;6187133;23;20025;-88
2022/01/24 08:11:38;;;;;;;90.80;41.63;;;-1.70;99.90;;;;;;6192169;23;20758;-88
2022/01/24 08:14:27;;;;;;;104.60;44.15;;;-1.50;99.90;;;;;;6190591;23;20036;-89
2022/01/24 08:17:14;;;;;;;94.90;42.80;;;-1.20;99.90;;;;;;6191938;23;20063;-88
2022/01/24 08:20:05;;;;;;;103.03;44.17;;;-1.10;99.90;;;;;;6185663;23;20277;-89
2022/01/24 08:23:27;;;;;;;;;;;;;;;;;;;;;
2022/01/24 08:26:21;;;;;;;103.18;45.13;;;-0.70;99.90;;;;;;6186016;23;20047;-88
2022/01/24 08:29:13;;;;;;;87.13;42.00;;;-0.60;99.90;;;;;;6191329;23;20085;-89
2022/01/24 08:32:00;;;;;;;98.18;43.33;;;-0.40;99.90;;;;;;6187416;23;20028;-88
2022/01/24 08:34:48;;;;;;;90.45;39.90;;;-0.40;99.90;;;;;;6183889;23;20024;-88
2022/01/24 08:37:50;;;;;;;89.63;39.72;;;-0.30;99.90;;;;;;6183167;23;20036;-88
2022/01/24 08:40:40;;;;;;;81.40;37.85;;;-0.20;99.90;;;;;;6185419;23;20028;-87
2022/01/24 08:43:50;;;;;;;79.82;38.15;;;0.00;99.90;;;;;;6183247;23;20206;-87
2022/01/24 08:46:41;;;;;;;70.70;34.58;;;0.20;99.90;;;;;;6185259;23;20400;-86
2022/01/24 08:49:44;;;;;;;81.07;38.10;;;0.50;99.90;;;;;;6185407;23;20021;-88
2022/01/24 08:52:38;;;;;;;;;;;0.80;99.90;;;;;;6180991;23;20017;-90
2022/01/24 08:55:34;;;;;;;72.70;35.47;;;0.90;99.90;;;;;;6183138;23;19938;-90
2022/01/24 08:58:38;;;;;;;69.57;36.35;;;1.20;99.90;;;;;;6182182;23;20104;-89
2022/01/24 09:01:25;;;;;;;78.05;37.30;;;1.20;99.90;;;;;;6181949;23;20032;-88
2022/01/24 09:04:15;;;;;;;71.38;35.65;;;1.50;99.90;;;;;;6185156;23;20052;-87
2022/01/24 09:07:10;;;;;;;68.05;34.88;;;1.70;99.90;;;;;;6181603;23;20025;-89
2022/01/24 09:10:00;;;;;;;66.97;34.70;;;1.70;99.90;;;;;;6184465;23;20079;-87
2022/01/24 09:12:49;;;;;;;60.25;32.47;;;1.70;99.90;;;;;;6180605;23;20025;-89
2022/01/24 09:15:46;;;;;;;56.67;31.75;;;1.80;99.90;;;;;;6182751;23;20317;-90
2022/01/24 09:18:34;;;;;;;43.28;26.77;;;2.10;99.90;;;;;;6185295;23;20104;-88
2022/01/24 09:21:35;;;;;;;38.95;24.15;;;2.20;99.90;;;;;;6181529;23;20029;-89
2022/01/24 09:24:30;;;;;;;31.98;21.15;;;2.50;99.90;;;;;;6181156;23;20332;-86
2022/01/24 09:30:43;;;;;;;19.45;14.25;;;3.50;99.90;;;;;;6183528;23;20025;-92
2022/01/24 09:33:41;;;;;;;21.60;14.30;;;4.20;99.90;;;;;;6183203;23;20032;-86
2022/01/24 09:36:28;;;;;;;18.73;12.73;;;5.00;99.90;;;;;;6183077;23;20029;-87
2022/01/24 09:43:09;;;;;;;16.85;11.38;;;5.70;99.90;;;;;;6181735;23;20048;-90
2022/01/24 09:46:14;;;;;;;15.75;10.88;;;6.50;99.90;;;;;;6183526;23;20036;-87
2022/01/24 09:49:04;;;;;;;14.35;10.55;;;6.80;99.90;;;;;;6163853;23;20588;-90
2022/01/24 09:52:03;;;;;;;16.20;10.10;;;7.80;99.90;;;;;;6182879;23;20024;-89
2022/01/24 09:54:50;;;;;;;12.52;8.98;;;8.70;99.90;;;;;;6186409;23;20032;-90
2022/01/24 09:57:51;;;;;;;10.63;8.05;;;9.90;93.30;;;;;;6185155;23;20108;-89
2022/01/24 10:00:59;;;;;;;9.88;7.47;;;10.00;90.50;;;;;;6183324;23;20114;-89
2022/01/24 10:04:15;;;;;;;11.30;7.97;;;9.40;90.00;;;;;;6184860;23;20036;-89
2022/01/24 10:07:19;;;;;;;11.23;8.60;;;9.30;90.40;;;;;;6183200;23;20032;-88
2022/01/24 10:10:08;;;;;;;7.97;7.13;;;10.20;88.80;;;;;;6185007;23;20056;-89
2022/01/24 10:18:15;;;;;;;;;;;;;;;;;;;;;
2022/01/24 10:26:05;;;;;;;9.45;7.93;;;11.80;74.70;;;;;;5954246;24;20021;-89
2022/01/24 10:29:31;;;;;;;8.57;7.00;;;11.70;74.20;;;;;;5955840;24;20394;-88
2022/01/24 10:32:40;;;;;;;7.93;6.85;;;11.80;72.00;;;;;;5948099;24;20043;-89
2022/01/24 10:35:44;;;;;;;10.55;7.00;;;11.40;71.80;;;;;;5948553;24;20449;-87
2022/01/24 10:38:55;;;;;;;7.63;6.18;;;11.50;72.40;;;;;;5935491;24;20123;-91
2022/01/24 10:42:26;;;;;;;8.38;6.43;;;12.20;71.40;;;;;;5953872;24;20035;-90
2022/01/24 10:45:22;;;;;;;8.43;5.93;;;13.00;64.50;;;;;;6031744;23;20092;-89
2022/01/24 10:48:12;;;;;;;9.52;6.85;;;14.00;61.60;;;;;;6094765;23;20026;-90
2022/01/24 10:51:24;;;;;;;9.98;6.30;;;13.70;62.20;;;;;;6076685;23;20029;-89
2022/01/24 10:54:28;;;;;;;6.45;5.20;;;13.50;61.80;;;;;;6094958;23;20033;-89
2022/01/24 10:57:25;;;;;;;7.55;6.35;;;13.30;60.90;;;;;;6076186;23;20369;-88
2022/01/24 11:00:53;;;;;;;7.53;6.13;;;13.90;61.80;;;;;;6116593;23;20030;-90
2022/01/24 11:04:28;;;;;;;8.20;6.43;;;12.90;61.40;;;;;;6082248;23;20085;-89
2022/01/24 11:11:41;;;;;;;7.93;5.65;;;12.90;62.00;;;;;;6095452;23;20038;-89
2022/01/24 11:14:35;;;;;;;7.22;5.22;;;13.50;61.00;;;;;;6095192;23;20131;-88
2022/01/24 11:17:40;;;;;;;8.68;5.50;;;13.60;60.00;;;;;;6074570;23;20318;-90
2022/01/24 11:20:44;;;;;;;9.20;6.22;;;13.80;59.00;;;;;;6076410;23;20045;-89
2022/01/24 11:28:32;;;;;;;7.43;5.00;;;12.30;61.60;;;;;;6035507;23;20027;-90
2022/01/24 11:32:42;;;;;;;7.38;4.88;;;12.80;60.50;;;;;;6021063;23;20038;-89
2022/01/24 11:48:35;;;;;;;8.88;4.55;;;14.80;56.70;;;;;;6126979;23;20040;-89
2022/01/24 11:56:56;;;;;;;;;;;;;;;;;;;;;
2022/01/24 11:59:36;;;;;;;5.55;4.95;;;14.30;56.50;;;;;;6046709;23;20335;-89
2022/01/24 12:06:44;;;;;;;;;;;;;;;;;;;;;
2022/01/24 12:09:49;;;;;;;6.72;5.35;;;14.50;56.20;;;;;;5978209;23;20039;-92
2022/01/24 12:13:00;;;;;;;7.00;5.03;;;14.90;55.50;;;;;;5993214;23;20024;-90
2022/01/24 12:15:57;;;;;;;6.63;4.85;;;15.30;54.80;;;;;;5989140;23;20027;-88
2022/01/24 12:19:03;;;;;;;7.50;5.88;;;15.50;53.00;;;;;;5926001;24;20033;-89
2022/01/24 12:22:12;;;;;;;10.90;5.60;;;16.00;52.30;;;;;;5925118;24;20040;-88
2022/01/24 12:25:48;;;;;;;7.45;5.47;;;15.70;53.40;;;;;;5915097;24;20033;-89
2022/01/24 12:28:44;;;;;;;7.72;5.93;;;15.80;52.60;;;;;;5929713;24;20035;-89
2022/01/24 12:31:48;;;;;;;9.73;6.00;;;15.40;54.40;;;;;;5930765;24;20036;-88
2022/01/24 12:35:02;;;;;;;9.02;5.85;;;14.50;55.00;;;;;;5918698;24;20061;-88
2022/01/24 12:38:09;;;;;;;9.00;6.45;;;14.00;56.70;;;;;;5941437;24;20060;-90
2022/01/24 12:41:33;;;;;;;9.18;6.65;;;13.50;58.20;;;;;;6019064;23;20102;-88
2022/01/24 12:49:30;;;;;;;7.60;5.32;;;15.80;54.70;;;;;;5914140;24;20055;-89
2022/01/24 12:57:14;;;;;;;6.13;5.45;;;15.80;52.50;;;;;;5939993;23;20067;-89
2022/01/24 13:38:53;;;;;;;6.63;5.03;;;15.70;51.20;;;;;;6194350;23;20075;-91
2022/01/24 13:54:37;;;;;;;6.63;4.65;;;15.40;52.10;;;;;;6038729;23;20016;-90
2022/01/24 13:58:21;;;;;;;5.53;4.60;;;15.90;51.20;;;;;;6040934;23;20049;-88
2022/01/24 14:06:14;;;;;;;6.38;4.53;;;16.30;49.60;;;;;;6042250;23;20015;-88
2022/01/24 14:09:11;;;;;;;6.38;4.78;;;15.60;50.50;;;;;;6158842;23;20119;-88
2022/01/24 14:16:07;;;;;;;7.15;4.63;;;16.00;50.40;;;;;;6064452;23;20270;-88
2022/01/24 14:28:17;;;;;;;7.38;5.05;;;14.60;52.20;;;;;;5978602;23;20028;-88
2022/01/24 14:47:24;;;;;;;8.73;5.07;;;13.60;55.60;;;;;;6142324;23;20033;-89
2022/01/24 14:50:32;;;;;;;7.85;4.32;;;13.50;56.10;;;;;;6167243;23;20040;-92
2022/01/24 14:53:28;;;;;;;6.28;4.45;;;13.40;56.40;;;;;;6184656;23;20048;-90
2022/01/24 14:56:37;;;;;;;8.35;4.35;;;13.20;56.90;;;;;;6182832;23;20033;-89
2022/01/24 15:04:25;;;;;;;;;;;;;;;;;;;;;
2022/01/24 15:07:45;;;;;;;6.97;4.32;;;13.30;56.20;;;;;;6188307;23;20087;-88
2022/01/24 15:10:40;;;;;;;9.32;4.03;;;12.10;59.10;;;;;;6189276;23;20029;-90
2022/01/24 15:27:40;;;;;;;7.00;4.88;;;8.90;72.10;;;;;;6095176;23;20022;-92
2022/01/24 15:30:39;;;;;;;;;;;;;;;;;;;;;
2022/01/24 15:34:18;;;;;;;7.20;4.90;;;7.80;79.00;;;;;;6095131;23;20093;-92
2022/01/24 15:37:10;;;;;;;10.50;6.13;;;7.30;82.00;;;;;;6093406;23;20063;-91
2022/01/24 15:39:58;;;;;;;9.77;5.88;;;7.20;83.90;;;;;;6183696;23;20032;-89
2022/01/24 15:43:02;;;;;;;8.68;5.57;;;7.00;86.30;;;;;;6183537;23;20104;-90
2022/01/24 15:48:53;;;;;;;9.15;5.40;;;6.20;92.00;;;;;;6186098;23;20021;-90
2022/01/24 15:52:05;;;;;;;15.90;6.32;;;5.80;94.90;;;;;;6183136;23;20025;-90
2022/01/24 15:55:25;;;;;;;10.68;6.30;;;5.50;99.10;;;;;;6184664;23;20082;-89
2022/01/24 15:58:42;;;;;;;15.55;8.00;;;5.20;99.90;;;;;;6184832;23;20588;-91
2022/01/24 16:01:54;;;;;;;11.70;6.25;;;4.90;99.90;;;;;;6142587;23;20021;-91
2022/01/24 16:05:01;;;;;;;8.88;6.50;;;4.60;99.90;;;;;;6187927;23;20036;-89
2022/01/24 16:07:59;;;;;;;11.38;6.20;;;4.40;99.90;;;;;;6183566;23;20594;-90
2022/01/24 16:10:46;;;;;;;11.38;5.82;;;4.20;99.90;;;;;;6184177;23;20186;-90
2022/01/24 16:13:36;;;;;;;9.18;6.28;;;4.00;99.90;;;;;;6183913;23;20044;-90
2022/01/24 16:16:26;;;;;;;13.15;6.80;;;3.80;99.90;;;;;;6183497;23;20031;-89
2022/01/24 16:19:21;;;;;;;11.65;6.50;;;3.60;99.90;;;;;;6183349;23;20025;-88
2022/01/24 16:22:28;;;;;;;11.00;7.20;;;3.50;99.90;;;;;;6164702;23;20039;-90
2022/01/24 16:25:34;;;;;;;13.95;6.13;;;3.40;99.90;;;;;;6181519;23;20029;-88
2022/01/24 16:28:31;;;;;;;22.52;10.05;;;3.30;99.90;;;;;;6181963;23;20024;-89
2022/01/24 16:31:21;;;;;;;13.32;7.85;;;3.30;99.90;;;;;;6182026;23;20036;-89
2022/01/24 16:34:08;;;;;;;13.25;8.05;;;3.10;99.90;;;;;;6183132;23;20404;-89
2022/01/24 16:37:06;;;;;;;15.13;7.97;;;3.20;99.90;;;;;;6181414;23;20029;-89
2022/01/24 16:39:59;;;;;;;15.35;8.18;;;3.00;99.90;;;;;;6182110;23;20025;-89
2022/01/24 16:43:17;;;;;;;12.48;7.97;;;3.00;99.90;;;;;;6183922;23;20080;-89
2022/01/24 16:49:29;;;;;;;13.57;9.00;;;2.90;99.90;;;;;;6184372;23;20079;-89
2022/01/24 16:52:17;;;;;;;15.55;9.43;;;2.80;99.90;;;;;;6183463;23;20029;-89
2022/01/24 16:55:09;;;;;;;18.85;9.65;;;2.80;99.90;;;;;;6164518;23;20036;-90
2022/01/24 16:58:11;;;;;;;18.55;9.85;;;2.70;99.90;;;;;;6161994;23;20084;-89
2022/01/24 17:01:11;;;;;;;22.98;10.32;;;2.60;99.90;;;;;;6164044;23;20029;-90
2022/01/24 17:04:00;;;;;;;16.70;10.18;;;2.50;99.90;;;;;;6182370;23;20059;-89
2022/01/24 17:06:53;;;;;;;17.77;9.27;;;2.50;99.90;;;;;;6163447;23;20077;-89
2022/01/24 17:09:43;;;;;;;22.88;10.63;;;2.40;99.90;;;;;;6162886;23;20052;-89
2022/01/24 17:12:31;;;;;;;20.73;11.80;;;2.40;99.90;;;;;;6162877;23;20129;-91
2022/01/24 17:15:20;;;;;;;19.73;11.90;;;2.40;99.90;;;;;;6162153;23;20348;-90
2022/01/24 17:18:07;;;;;;;19.52;11.75;;;2.30;99.90;;;;;;6161077;23;20103;-90
2022/01/24 17:20:55;;;;;;;30.95;14.32;;;2.30;99.90;;;;;;6184755;23;20029;-90
2022/01/24 17:23:43;;;;;;;20.50;13.35;;;2.30;99.90;;;;;;6162985;23;20091;-89
2022/01/24 17:26:37;;;;;;;27.65;13.60;;;2.20;99.90;;;;;;6184733;23;20035;-90
2022/01/24 17:56:26;;;;;;;20.60;13.38;;;1.40;99.90;;;;;;6204884;22;20096;-88
2022/01/24 17:59:13;;;;;;;22.08;13.45;;;1.30;99.90;;;;;;6184760;23;20021;-90
2022/01/24 18:02:00;;;;;;;20.25;12.77;;;1.20;99.90;;;;;;6182633;23;20056;-88
2022/01/24 18:05:00;;;;;;;23.75;13.02;;;1.00;99.90;;;;;;6184593;23;20100;-89
2022/01/24 18:08:03;;;;;;;23.38;13.90;;;1.00;99.90;;;;;;6182922;23;20021;-89
2022/01/24 18:10:50;;;;;;;23.45;13.60;;;0.90;99.90;;;;;;6182879;23;20040;-90
2022/01/24 18:13:44;;;;;;;27.38;13.73;;;0.70;99.90;;;;;;6184341;23;20032;-89
2022/01/24 18:16:52;;;;;;;27.55;13.63;;;0.60;99.90;;;;;;6185980;23;20029;-89
2022/01/24 18:19:42;;;;;;;24.50;13.07;;;0.50;99.90;;;;;;6165320;23;20033;-89
2022/01/24 18:22:37;;;;;;;22.15;13.25;;;0.40;99.90;;;;;;6186652;23;20032;-89
2022/01/24 18:25:37;;;;;;;27.25;14.27;;;0.50;99.90;;;;;;6182569;23;20103;-89
2022/01/24 18:28:33;;;;;;;28.67;15.30;;;0.40;99.90;;;;;;6183642;23;20282;-90
2022/01/24 18:31:25;;;;;;;25.52;14.00;;;0.40;99.90;;;;;;6186213;23;20482;-90
2022/01/24 18:34:12;;;;;;;32.15;18.17;;;0.30;99.90;;;;;;6185669;23;20099;-89
2022/01/24 18:37:00;;;;;;;33.95;17.63;;;0.30;99.90;;;;;;6185380;23;20047;-90
2022/01/24 18:39:48;;;;;;;28.75;17.13;;;0.40;99.90;;;;;;6184901;23;20033;-88
2022/01/24 18:42:36;;;;;;;26.08;15.07;;;0.40;99.90;;;;;;6184579;23;20404;-89
2022/01/24 18:45:26;;;;;;;31.35;16.08;;;0.30;99.90;;;;;;6184752;23;20289;-88
2022/01/24 18:48:14;;;;;;;26.17;16.58;;;0.30;99.90;;;;;;6181632;23;20027;-88
2022/01/24 18:51:08;;;;;;;40.13;18.45;;;0.30;99.90;;;;;;6183288;23;20028;-90
2022/01/24 18:54:01;;;;;;;36.72;19.83;;;0.80;99.90;;;;;;6183249;23;20025;-89
2022/01/24 18:56:49;;;;;;;31.77;18.10;;;0.90;99.90;;;;;;6183374;23;20036;-89
2022/01/24 18:59:38;;;;;;;33.95;18.35;;;1.00;99.90;;;;;;6187735;23;20048;-90
2022/01/24 19:02:33;;;;;;;32.95;17.45;;;1.20;99.90;;;;;;6188930;23;20036;-89
2022/01/24 19:05:30;;;;;;;36.60;18.25;;;1.30;99.90;;;;;;6182025;23;20305;-88
2022/01/24 19:08:18;;;;;;;33.90;18.48;;;1.40;99.90;;;;;;6180633;23;20036;-89
2022/01/24 19:11:09;;;;;;;31.27;18.08;;;1.40;99.90;;;;;;6182347;23;20313;-88
2022/01/24 19:13:59;;;;;;;31.85;17.13;;;1.30;99.90;;;;;;6181089;23;20305;-90
2022/01/24 19:16:49;;;;;;;33.00;17.75;;;1.30;99.90;;;;;;6182476;23;20024;-91
2022/01/24 19:25:58;;;;;;;35.75;20.80;;;1.40;99.90;;;;;;6185920;23;20117;-90
2022/01/24 19:29:02;;;;;;;33.53;18.05;;;1.40;99.90;;;;;;6186366;23;20029;-90
2022/01/24 19:31:50;;;;;;;30.30;17.67;;;1.40;99.90;;;;;;6184260;23;20021;-88
2022/01/24 19:34:40;;;;;;;31.80;19.02;;;1.40;99.90;;;;;;6186557;23;20033;-91
2022/01/24 19:37:27;;;;;;;37.15;19.80;;;1.40;99.90;;;;;;6185898;23;20044;-90
2022/01/24 19:40:17;;;;;;;36.72;20.67;;;1.30;99.90;;;;;;6190326;23;20027;-90
2022/01/24 19:43:11;;;;;;;32.75;19.20;;;1.30;99.90;;;;;;6196279;23;20436;-88
2022/01/24 19:46:01;;;;;;;43.00;20.52;;;1.20;99.90;;;;;;6196986;23;20025;-89
2022/01/24 19:48:51;;;;;;;39.35;22.85;;;1.10;99.90;;;;;;6206287;23;20021;-85
2022/01/24 19:51:41;;;;;;;38.58;22.20;;;0.90;99.90;;;;;;6189939;23;20154;-87
2022/01/24 19:54:34;;;;;;;48.60;25.17;;;0.80;99.90;;;;;;6210185;23;20017;-86
2022/01/24 19:57:31;;;;;;;51.38;24.25;;;0.80;99.90;;;;;;6209958;23;20110;-84
2022/01/24 20:00:18;;;;;;;49.92;27.52;;;0.80;99.90;;;;;;6187090;23;20049;-89
2022/01/24 20:03:06;;;;;;;54.85;29.27;;;0.80;99.90;;;;;;6202423;23;20029;-88
2022/01/24 20:05:56;;;;;;;45.92;26.98;;;0.70;99.90;;;;;;6204741;23;20047;-88
2022/01/24 20:08:56;;;;;;;47.80;25.23;;;0.70;99.90;;;;;;6195607;23;20021;-89
2022/01/24 20:11:44;;;;;;;51.90;29.33;;;0.70;99.90;;;;;;6196777;23;20401;-87
2022/01/24 20:14:32;;;;;;;57.53;30.17;;;0.60;99.90;;;;;;6206135;23;20021;-88
2022/01/24 20:17:22;;;;;;;43.75;24.92;;;0.50;99.90;;;;;;6200732;23;20032;-88
2022/01/24 20:20:11;;;;;;;55.88;29.10;;;0.50;99.90;;;;;;6198101;23;20039;-89
2022/01/24 20:23:02;;;;;;;53.55;30.05;;;0.50;99.90;;;;;;6199947;23;20056;-88
2022/01/24 20:29:54;;;;;;;47.35;23.73;;;0.40;99.90;;;;;;6199530;23;20017;-89
2022/01/24 20:33:28;;;;;;;49.58;24.92;;;0.50;99.90;;;;;;6199707;23;20443;-89
2022/01/24 20:36:15;;;;;;;44.00;21.38;;;0.40;99.90;;;;;;6200094;23;20409;-90
2022/01/24 20:39:04;;;;;;;39.35;20.48;;;0.50;99.90;;;;;;6196199;23;20381;-89
2022/01/24 20:41:54;;;;;;;38.60;20.73;;;0.60;99.90;;;;;;6197755;23;20033;-88